Time;durP1;ratioP1;P1;durP2;ratioP2;P2;SDS_P1;SDS_P2;PMS_P1;PMS_P2;Temp;Humidity;BMP_temperature;BMP_pressure;BME280_temperature;BME280_humidity;BME280_pressure;Samples;Min_cycle;Max_cycle;Signal;HPM_P1;HPM_P2
2022/10/26 00:00:46;;;;;;;7.20;6.30;;;13.90;99.90;;;;;;5034347;28;20467;-72
2022/10/26 00:03:12;;;;;;;7.07;6.47;;;13.90;99.90;;;;;;5034576;28;20417;-72
2022/10/26 00:05:38;;;;;;;9.23;6.13;;;14.00;99.90;;;;;;5034169;28;20520;-72
2022/10/26 00:08:04;;;;;;;8.43;6.47;;;14.00;99.90;;;;;;5029011;28;20416;-72
2022/10/26 00:10:32;;;;;;;8.07;6.13;;;14.00;99.90;;;;;;5033979;28;20181;-74
2022/10/26 00:12:58;;;;;;;6.63;5.80;;;14.10;99.90;;;;;;5034318;28;20416;-72
2022/10/26 00:15:24;;;;;;;6.57;5.93;;;14.10;99.90;;;;;;5016769;28;20471;-71
2022/10/26 00:17:50;;;;;;;7.00;6.17;;;14.10;99.90;;;;;;5012170;28;20183;-72
2022/10/26 00:20:15;;;;;;;7.30;6.60;;;14.10;99.90;;;;;;5021498;28;20415;-72
2022/10/26 00:22:41;;;;;;;8.23;6.10;;;14.00;99.90;;;;;;4994160;28;20249;-73
2022/10/26 00:25:07;;;;;;;6.90;6.23;;;14.00;99.90;;;;;;4994807;28;20175;-72
2022/10/26 00:27:33;;;;;;;7.03;6.50;;;14.00;99.90;;;;;;4999764;28;20214;-74
2022/10/26 00:30:06;;;;;;;7.17;6.57;;;14.00;99.90;;;;;;5010992;28;20453;-72
2022/10/26 00:32:32;;;;;;;8.07;6.33;;;14.10;99.90;;;;;;5012578;28;20547;-73
2022/10/26 00:34:57;;;;;;;7.00;6.40;;;14.00;99.90;;;;;;5014324;28;20439;-72
2022/10/26 00:37:23;;;;;;;7.70;6.93;;;14.10;99.90;;;;;;5014292;28;20942;-73
2022/10/26 00:39:49;;;;;;;8.10;7.30;;;14.10;99.90;;;;;;5028737;28;20747;-72
2022/10/26 00:42:19;;;;;;;7.57;6.40;;;14.10;99.90;;;;;;5033834;28;20266;-72
2022/10/26 00:44:48;;;;;;;7.53;6.70;;;14.20;99.90;;;;;;5033087;28;20286;-72
2022/10/26 00:47:20;;;;;;;6.93;5.87;;;14.10;99.90;;;;;;5033714;28;20413;-72
2022/10/26 00:49:48;;;;;;;8.77;7.07;;;14.10;99.90;;;;;;5026915;28;20424;-72
2022/10/26 00:52:17;;;;;;;7.97;7.10;;;14.20;99.90;;;;;;5033796;28;20412;-72
2022/10/26 00:54:43;;;;;;;7.13;6.50;;;14.10;99.90;;;;;;5032736;28;20493;-73
2022/10/26 00:57:14;;;;;;;9.10;6.70;;;14.10;99.90;;;;;;5027646;28;20492;-72
2022/10/26 00:59:41;;;;;;;7.23;6.53;;;14.10;99.90;;;;;;5023792;28;20428;-72
2022/10/26 01:02:07;;;;;;;8.27;6.87;;;14.10;99.90;;;;;;5033632;28;20806;-73
2022/10/26 01:04:33;;;;;;;7.80;6.50;;;14.20;99.90;;;;;;5032934;28;20404;-73
2022/10/26 01:07:02;;;;;;;7.47;6.70;;;14.20;99.90;;;;;;5033509;28;20421;-73
2022/10/26 01:09:28;;;;;;;10.40;6.80;;;14.20;99.90;;;;;;5027519;28;20404;-72
2022/10/26 01:11:53;;;;;;;6.83;6.23;;;14.20;99.90;;;;;;5032902;28;20767;-72
2022/10/26 01:14:20;;;;;;;7.50;6.90;;;14.20;99.90;;;;;;5033255;28;20450;-72
2022/10/26 01:17:03;;;;;;;6.67;5.80;;;14.20;99.90;;;;;;5032879;28;20576;-72
2022/10/26 01:19:35;;;;;;;6.80;6.30;;;14.20;99.90;;;;;;5027466;28;20759;-73
2022/10/26 01:22:21;;;;;;;6.50;6.00;;;14.20;99.90;;;;;;5033510;28;20431;-72
2022/10/26 01:25:11;;;;;;;6.83;6.17;;;14.20;99.90;;;;;;5032311;28;20860;-73
2022/10/26 01:27:49;;;;;;;7.57;5.83;;;14.20;99.90;;;;;;5019296;28;20420;-73
2022/10/26 01:30:32;;;;;;;7.83;6.23;;;14.20;99.90;;;;;;5014002;28;20535;-73
2022/10/26 01:33:17;;;;;;;7.23;6.63;;;14.30;99.90;;;;;;5013409;28;20421;-72
2022/10/26 01:35:51;;;;;;;7.27;6.57;;;14.30;99.90;;;;;;5012841;28;20708;-72
2022/10/26 01:38:30;;;;;;;6.97;6.30;;;14.30;99.90;;;;;;5015879;28;20397;-72
2022/10/26 01:41:10;;;;;;;6.40;5.90;;;14.30;99.90;;;;;;5002569;28;20405;-72
2022/10/26 01:43:41;;;;;;;6.77;5.87;;;14.40;99.90;;;;;;4999956;28;20436;-73
2022/10/26 01:46:09;;;;;;;6.07;5.33;;;14.40;99.90;;;;;;5001550;28;20758;-72
2022/10/26 01:48:37;;;;;;;6.87;6.37;;;14.40;99.90;;;;;;5004270;28;20442;-73
2022/10/26 01:51:04;;;;;;;6.90;6.40;;;14.30;99.90;;;;;;5000781;28;20930;-73
2022/10/26 01:53:30;;;;;;;10.53;6.67;;;14.40;99.90;;;;;;5002760;28;20403;-73
2022/10/26 01:55:57;;;;;;;8.47;6.23;;;14.40;99.90;;;;;;5000684;28;20731;-73
2022/10/26 01:58:31;;;;;;;7.57;6.80;;;14.40;99.90;;;;;;5005629;28;20177;-73
2022/10/26 02:01:13;;;;;;;6.67;6.17;;;14.40;99.90;;;;;;5000098;28;20449;-73
2022/10/26 02:04:00;;;;;;;6.23;5.53;;;14.40;99.90;;;;;;5000618;28;20410;-73
2022/10/26 02:06:58;;;;;;;6.10;5.60;;;14.40;99.90;;;;;;4999422;28;20498;-73
2022/10/26 02:09:55;;;;;;;7.10;6.40;;;14.50;99.90;;;;;;4979815;28;20525;-72
2022/10/26 02:12:33;;;;;;;5.70;5.20;;;14.50;99.90;;;;;;5001248;28;20794;-72
2022/10/26 02:15:28;;;;;;;5.50;5.10;;;14.50;99.90;;;;;;5000700;28;20411;-72
2022/10/26 02:17:59;;;;;;;4.90;4.50;;;14.50;99.90;;;;;;5001064;28;20421;-72
2022/10/26 02:20:42;;;;;;;5.20;4.83;;;14.50;99.90;;;;;;4998556;28;20410;-73
2022/10/26 02:23:09;;;;;;;4.83;4.57;;;14.60;99.90;;;;;;5002355;28;20410;-73
2022/10/26 02:25:40;;;;;;;5.33;4.93;;;14.60;99.90;;;;;;5004790;28;20561;-73
2022/10/26 02:28:10;;;;;;;5.47;5.03;;;14.70;99.90;;;;;;5011584;28;20449;-72
2022/10/26 02:30:38;;;;;;;7.47;5.00;;;14.70;99.90;;;;;;5047405;28;20404;-73
2022/10/26 02:33:06;;;;;;;4.83;4.53;;;14.70;99.90;;;;;;5032757;28;20459;-73
2022/10/26 02:35:35;;;;;;;5.40;5.00;;;14.80;99.90;;;;;;5032271;28;20427;-72
2022/10/26 02:38:09;;;;;;;5.67;4.70;;;14.80;99.90;;;;;;5026378;28;20462;-73
2022/10/26 02:40:36;;;;;;;5.10;4.80;;;14.90;99.90;;;;;;5032211;28;20397;-75
2022/10/26 02:43:11;;;;;;;5.30;4.80;;;14.90;99.90;;;;;;5030921;28;20455;-72
2022/10/26 02:45:45;;;;;;;5.33;5.03;;;14.90;99.90;;;;;;5031626;28;20405;-73
2022/10/26 02:48:11;;;;;;;5.40;5.00;;;14.90;99.90;;;;;;5026082;28;20401;-73
2022/10/26 02:51:04;;;;;;;4.87;4.67;;;15.00;99.90;;;;;;5032063;28;20805;-72
2022/10/26 02:53:34;;;;;;;5.50;5.20;;;15.00;99.90;;;;;;5032434;28;20405;-72
2022/10/26 02:56:08;;;;;;;5.70;5.30;;;15.00;99.90;;;;;;5035980;28;20398;-72
2022/10/26 02:58:39;;;;;;;5.13;4.73;;;15.10;99.90;;;;;;5020346;28;20418;-72
2022/10/26 03:01:06;;;;;;;5.43;5.03;;;15.00;99.90;;;;;;5035955;28;20506;-72
2022/10/26 03:03:32;;;;;;;5.67;5.27;;;15.10;99.90;;;;;;5036127;28;20490;-72
2022/10/26 03:05:57;;;;;;;5.20;4.70;;;15.10;99.90;;;;;;5034848;28;20815;-72
2022/10/26 03:08:23;;;;;;;4.93;4.63;;;15.10;99.90;;;;;;5029741;28;20183;-76
2022/10/26 03:10:49;;;;;;;4.27;3.97;;;15.20;99.90;;;;;;5034077;28;20616;-75
2022/10/26 03:13:14;;;;;;;5.27;4.77;;;15.10;99.90;;;;;;5035849;28;20634;-72
2022/10/26 03:15:40;;;;;;;5.60;5.10;;;15.10;99.90;;;;;;5033731;28;20187;-72
2022/10/26 03:18:06;;;;;;;5.03;4.83;;;15.10;99.90;;;;;;5029667;28;20176;-72
2022/10/26 03:20:32;;;;;;;5.30;4.80;;;15.20;99.90;;;;;;5035691;28;20398;-72
2022/10/26 03:22:58;;;;;;;5.77;5.37;;;15.20;99.90;;;;;;5034953;28;20449;-72
2022/10/26 03:25:24;;;;;;;4.80;4.33;;;15.10;99.90;;;;;;5035355;28;20708;-72
2022/10/26 03:28:01;;;;;;;5.70;5.13;;;15.10;99.90;;;;;;5037841;28;20193;-72
2022/10/26 03:30:28;;;;;;;6.70;6.10;;;15.20;99.90;;;;;;5035386;28;20416;-72
2022/10/26 03:32:54;;;;;;;5.40;4.90;;;15.10;99.90;;;;;;5034350;28;20925;-72
2022/10/26 03:35:20;;;;;;;5.20;4.70;;;15.20;99.90;;;;;;5035217;28;20418;-72
2022/10/26 03:37:45;;;;;;;4.67;4.27;;;15.20;99.90;;;;;;5030155;28;20483;-74
2022/10/26 03:40:14;;;;;;;20.87;5.37;;;15.10;99.90;;;;;;5033933;28;20287;-72
2022/10/26 03:42:40;;;;;;;4.30;3.90;;;15.10;99.90;;;;;;5034684;28;20961;-73
2022/10/26 03:45:07;;;;;;;5.47;3.77;;;15.10;99.90;;;;;;5035421;28;20411;-72
2022/10/26 03:47:33;;;;;;;4.63;4.33;;;15.10;99.90;;;;;;5033781;28;20405;-73
2022/10/26 03:49:59;;;;;;;4.83;4.53;;;15.30;99.90;;;;;;5030016;28;20477;-72
2022/10/26 03:52:24;;;;;;;4.57;4.37;;;15.20;99.90;;;;;;5035029;28;20185;-72
2022/10/26 03:54:51;;;;;;;6.50;4.30;;;15.30;99.90;;;;;;5034454;28;20172;-72
2022/10/26 03:57:17;;;;;;;4.20;3.80;;;15.30;99.90;;;;;;5027015;28;20198;-72
2022/10/26 03:59:42;;;;;;;6.03;5.50;;;15.40;99.90;;;;;;5011903;28;20412;-72
2022/10/26 04:02:08;;;;;;;4.40;4.00;;;15.50;99.90;;;;;;5015117;28;20460;-72
2022/10/26 04:04:34;;;;;;;4.40;4.20;;;15.40;99.90;;;;;;5014844;28;20268;-72
2022/10/26 04:06:59;;;;;;;3.93;3.57;;;15.50;99.90;;;;;;5014196;28;20177;-72
2022/10/26 04:09:25;;;;;;;4.30;4.00;;;15.50;99.90;;;;;;5007893;28;20523;-72
2022/10/26 04:11:51;;;;;;;4.97;4.60;;;15.60;99.90;;;;;;5034142;28;20200;-72
2022/10/26 04:14:16;;;;;;;4.50;4.10;;;15.60;99.90;;;;;;5034704;28;20175;-72
2022/10/26 04:16:42;;;;;;;5.30;4.90;;;15.70;99.90;;;;;;5033894;28;20608;-72
2022/10/26 04:19:08;;;;;;;6.80;6.13;;;15.70;99.90;;;;;;5019740;28;20260;-72
2022/10/26 04:21:34;;;;;;;11.13;4.00;;;15.80;99.90;;;;;;5013219;28;20635;-72
2022/10/26 04:24:00;;;;;;;4.07;3.60;;;15.90;99.90;;;;;;5012857;28;20395;-72
2022/10/26 04:26:26;;;;;;;5.77;4.03;;;15.90;99.90;;;;;;5014549;28;20417;-72
2022/10/26 04:28:51;;;;;;;4.07;3.77;;;15.90;99.90;;;;;;5018997;28;20414;-72
2022/10/26 04:31:17;;;;;;;5.13;4.73;;;15.90;99.90;;;;;;5033993;28;20225;-72
2022/10/26 04:33:43;;;;;;;4.87;3.57;;;15.90;99.90;;;;;;5033690;28;20188;-72
2022/10/26 04:36:09;;;;;;;5.13;3.90;;;16.00;99.90;;;;;;5034125;28;20173;-72
2022/10/26 04:38:35;;;;;;;6.90;2.80;;;16.00;99.90;;;;;;5028243;28;20180;-72
2022/10/26 04:41:01;;;;;;;3.20;2.43;;;16.00;99.90;;;;;;5033577;28;20875;-72
2022/10/26 04:43:26;;;;;;;4.63;3.03;;;16.10;99.90;;;;;;5034062;28;20525;-72
2022/10/26 04:45:56;;;;;;;3.10;2.73;;;16.10;99.90;;;;;;5033307;28;20184;-72
2022/10/26 04:48:22;;;;;;;3.20;2.90;;;16.00;99.90;;;;;;5025614;28;20178;-72
2022/10/26 04:50:48;;;;;;;4.07;3.70;;;16.10;99.90;;;;;;5013605;28;20413;-72
2022/10/26 04:53:14;;;;;;;6.40;4.43;;;16.10;99.90;;;;;;5029155;28;20405;-72
2022/10/26 04:55:40;;;;;;;4.73;3.27;;;16.20;99.90;;;;;;5013774;28;20189;-72
2022/10/26 04:58:06;;;;;;;4.03;3.70;;;16.20;99.90;;;;;;5011632;28;20413;-71
2022/10/26 05:00:32;;;;;;;4.27;3.60;;;16.30;99.90;;;;;;5033690;28;20177;-71
2022/10/26 05:03:03;;;;;;;3.40;3.10;;;16.30;99.90;;;;;;5032854;28;20543;-71
2022/10/26 05:05:30;;;;;;;4.07;3.77;;;16.30;99.90;;;;;;5033895;28;20792;-72
2022/10/26 05:07:57;;;;;;;6.47;4.20;;;16.20;99.90;;;;;;5027302;28;20426;-71
2022/10/26 05:10:23;;;;;;;4.97;4.37;;;16.10;99.90;;;;;;5033366;28;20419;-71
2022/10/26 05:12:53;;;;;;;8.70;3.93;;;16.20;99.90;;;;;;5032951;28;20420;-72
2022/10/26 05:15:19;;;;;;;4.30;3.90;;;16.20;99.90;;;;;;5033498;28;20416;-71
2022/10/26 05:17:45;;;;;;;4.17;2.90;;;16.30;99.90;;;;;;5027662;28;20488;-72
2022/10/26 05:20:12;;;;;;;4.83;4.00;;;16.30;99.90;;;;;;5031755;28;20178;-72
2022/10/26 05:22:39;;;;;;;4.10;3.90;;;16.40;99.90;;;;;;5033378;28;20502;-72
2022/10/26 05:25:05;;;;;;;3.30;3.10;;;16.40;99.90;;;;;;5032471;28;20802;-72
2022/10/26 05:27:31;;;;;;;3.97;3.67;;;16.50;99.90;;;;;;5021707;28;20430;-72
2022/10/26 05:29:56;;;;;;;4.30;4.00;;;16.50;99.90;;;;;;5027481;28;20405;-71
2022/10/26 05:32:22;;;;;;;3.33;3.13;;;16.50;99.90;;;;;;5048369;28;20312;-71
2022/10/26 05:34:48;;;;;;;4.50;4.20;;;16.50;99.90;;;;;;5032668;28;20639;-72
2022/10/26 05:37:13;;;;;;;5.10;3.60;;;16.50;99.90;;;;;;5032946;28;20167;-71
2022/10/26 05:39:39;;;;;;;5.53;4.17;;;16.50;99.90;;;;;;5026936;28;20201;-71
2022/10/26 05:42:05;;;;;;;4.63;4.27;;;16.40;99.90;;;;;;5032406;28;20297;-71
2022/10/26 05:44:31;;;;;;;3.90;3.60;;;16.40;99.90;;;;;;5033036;28;20173;-71
2022/10/26 05:46:57;;;;;;;4.23;3.90;;;16.50;99.90;;;;;;5032462;28;20413;-71
2022/10/26 05:49:22;;;;;;;4.00;3.43;;;16.40;99.90;;;;;;5026957;28;20177;-71
2022/10/26 05:51:48;;;;;;;4.50;3.40;;;16.40;99.90;;;;;;5032371;28;20518;-72
2022/10/26 05:54:13;;;;;;;3.33;3.13;;;16.50;99.90;;;;;;5032786;28;20224;-71
2022/10/26 05:56:40;;;;;;;3.30;3.20;;;16.50;99.90;;;;;;5033235;28;20191;-71
2022/10/26 05:59:14;;;;;;;4.70;3.50;;;16.40;99.90;;;;;;5006543;28;20182;-72
2022/10/26 06:01:56;;;;;;;8.27;5.20;;;16.50;99.90;;;;;;5013110;28;20461;-71
2022/10/26 06:04:42;;;;;;;3.70;3.40;;;16.40;99.90;;;;;;5011809;28;20441;-71
2022/10/26 06:07:13;;;;;;;4.83;4.33;;;16.50;99.90;;;;;;5012406;28;20437;-72
2022/10/26 06:09:42;;;;;;;4.60;4.20;;;16.40;99.90;;;;;;5012204;28;20405;-71
2022/10/26 06:12:10;;;;;;;4.67;3.60;;;16.40;99.90;;;;;;5012591;28;20413;-71
2022/10/26 06:14:36;;;;;;;3.37;2.90;;;16.40;99.90;;;;;;5012946;28;20406;-71
2022/10/26 06:17:04;;;;;;;3.83;3.63;;;16.40;99.90;;;;;;5012280;28;20410;-71
2022/10/26 06:19:30;;;;;;;4.63;4.13;;;16.40;99.90;;;;;;5025125;28;20425;-71
2022/10/26 06:22:01;;;;;;;3.63;3.27;;;16.40;99.90;;;;;;5030652;28;20464;-71
2022/10/26 06:24:47;;;;;;;3.40;3.10;;;16.40;99.90;;;;;;5032628;28;20169;-71
2022/10/26 06:27:22;;;;;;;3.50;3.23;;;16.50;99.90;;;;;;5026271;28;20781;-71
2022/10/26 06:30:02;;;;;;;3.40;3.20;;;16.50;99.90;;;;;;5026374;28;20439;-75
2022/10/26 06:32:29;;;;;;;4.10;3.70;;;16.50;99.90;;;;;;5036584;28;20475;-71
2022/10/26 06:35:10;;;;;;;4.00;3.70;;;16.50;99.90;;;;;;5035988;28;20424;-71
2022/10/26 06:37:37;;;;;;;4.40;4.10;;;16.50;99.90;;;;;;5034396;28;20742;-72
2022/10/26 06:40:05;;;;;;;4.33;3.93;;;16.50;99.90;;;;;;5032408;28;20416;-71
2022/10/26 06:42:31;;;;;;;4.73;4.13;;;16.50;99.90;;;;;;5036383;28;20733;-71
2022/10/26 06:44:57;;;;;;;4.77;4.20;;;16.40;99.90;;;;;;5034421;28;20417;-72
2022/10/26 06:47:56;;;;;;;4.50;4.10;;;16.50;99.90;;;;;;5036391;28;20470;-71
2022/10/26 06:50:28;;;;;;;4.93;4.50;;;16.40;99.90;;;;;;5014331;28;20786;-71
2022/10/26 06:53:28;;;;;;;5.13;4.40;;;16.50;99.90;;;;;;5015814;28;20482;-71
2022/10/26 06:55:56;;;;;;;4.50;4.10;;;16.50;99.90;;;;;;4964320;28;20430;-72
2022/10/26 06:58:28;;;;;;;4.07;3.77;;;16.40;99.90;;;;;;5017012;28;20440;-71
2022/10/26 07:00:55;;;;;;;4.60;4.30;;;16.40;99.90;;;;;;5035221;28;20487;-71
2022/10/26 07:03:21;;;;;;;5.93;4.80;;;16.40;99.90;;;;;;5035916;28;20427;-72
2022/10/26 07:05:48;;;;;;;6.60;4.23;;;16.50;99.90;;;;;;5035879;28;20496;-72
2022/10/26 07:08:13;;;;;;;4.60;4.20;;;16.40;99.90;;;;;;5028961;28;20444;-72
2022/10/26 07:10:41;;;;;;;4.97;4.67;;;16.40;99.90;;;;;;5051230;28;20405;-71
2022/10/26 07:13:07;;;;;;;5.67;5.20;;;16.50;99.90;;;;;;5033938;28;20210;-72
2022/10/26 07:15:35;;;;;;;4.87;4.37;;;16.50;99.90;;;;;;5035664;28;20424;-72
2022/10/26 07:18:04;;;;;;;4.10;3.90;;;16.60;99.90;;;;;;5028960;28;20421;-72
2022/10/26 07:20:31;;;;;;;5.40;3.47;;;16.60;99.90;;;;;;5035192;28;20420;-71
2022/10/26 07:22:57;;;;;;;4.27;3.67;;;16.60;99.90;;;;;;5034879;28;20467;-72
2022/10/26 07:25:24;;;;;;;9.87;5.07;;;16.60;99.90;;;;;;5035643;28;20752;-71
2022/10/26 07:27:51;;;;;;;6.70;6.10;;;16.60;99.90;;;;;;5019633;28;20446;-72
2022/10/26 07:30:17;;;;;;;9.53;6.37;;;16.70;99.90;;;;;;5032720;28;20928;-71
2022/10/26 07:32:42;;;;;;;4.90;4.50;;;16.70;99.90;;;;;;5034792;28;20547;-71
2022/10/26 07:35:08;;;;;;;8.77;7.93;;;16.70;99.90;;;;;;5034759;28;20752;-71
2022/10/26 07:37:34;;;;;;;8.10;7.40;;;16.70;99.90;;;;;;5033872;28;20413;-72
2022/10/26 07:40:00;;;;;;;7.40;6.90;;;16.80;99.90;;;;;;5029630;28;20475;-72
2022/10/26 07:42:26;;;;;;;6.70;6.10;;;16.70;99.90;;;;;;5035157;28;20609;-71
2022/10/26 07:44:52;;;;;;;5.97;5.53;;;16.80;99.90;;;;;;5033465;28;20475;-75
2022/10/26 07:47:18;;;;;;;4.97;4.50;;;16.90;99.90;;;;;;5035196;28;20179;-71
2022/10/26 07:49:43;;;;;;;4.23;3.90;;;16.90;99.90;;;;;;5028680;28;20190;-72
2022/10/26 07:52:09;;;;;;;3.97;3.67;;;16.90;99.90;;;;;;5034085;28;20208;-72
2022/10/26 07:54:35;;;;;;;4.43;4.00;;;16.90;99.90;;;;;;5035073;28;20220;-71
2022/10/26 07:57:01;;;;;;;4.13;3.83;;;16.90;99.90;;;;;;5030656;28;20951;-72
2022/10/26 07:59:27;;;;;;;3.87;3.60;;;16.80;99.90;;;;;;5035282;28;20436;-72
2022/10/26 08:01:53;;;;;;;3.40;3.10;;;16.90;99.90;;;;;;5034099;28;20855;-75
2022/10/26 08:04:19;;;;;;;4.27;3.10;;;16.90;99.90;;;;;;5035003;28;20574;-72
2022/10/26 08:06:46;;;;;;;4.10;3.73;;;17.00;99.90;;;;;;5034801;28;20448;-71
2022/10/26 08:09:11;;;;;;;3.53;3.33;;;17.10;99.90;;;;;;5027699;28;20178;-72
2022/10/26 08:11:37;;;;;;;4.03;3.27;;;17.20;99.90;;;;;;5034675;28;21000;-72
2022/10/26 08:14:04;;;;;;;4.23;3.93;;;17.30;99.90;;;;;;5032843;28;20451;-72
2022/10/26 08:16:30;;;;;;;3.23;2.93;;;17.30;99.90;;;;;;5033687;28;20174;-71
2022/10/26 08:18:56;;;;;;;9.13;7.67;;;17.40;99.90;;;;;;5027904;28;20413;-72
2022/10/26 08:21:21;;;;;;;4.47;4.17;;;17.40;99.90;;;;;;5034199;28;20467;-72
2022/10/26 08:23:47;;;;;;;4.07;3.70;;;17.40;99.90;;;;;;5034220;28;20201;-72
2022/10/26 08:26:13;;;;;;;3.73;3.43;;;17.50;99.90;;;;;;5033844;28;20174;-72
2022/10/26 08:28:39;;;;;;;2.87;2.77;;;17.50;99.90;;;;;;5011010;28;20184;-72
2022/10/26 08:31:05;;;;;;;2.33;2.23;;;17.60;99.90;;;;;;4992709;28;20267;-72
2022/10/26 08:33:31;;;;;;;2.77;2.57;;;17.60;99.90;;;;;;4994963;28;20415;-72
2022/10/26 08:35:58;;;;;;;3.03;2.73;;;17.80;99.90;;;;;;4994343;28;20414;-72
2022/10/26 08:38:24;;;;;;;3.47;2.80;;;17.80;99.90;;;;;;4999228;28;20175;-72
2022/10/26 08:40:51;;;;;;;3.30;3.20;;;17.90;99.90;;;;;;5014250;28;20438;-72
2022/10/26 08:43:33;;;;;;;4.40;4.00;;;18.00;99.90;;;;;;5012194;28;20987;-72
2022/10/26 08:46:13;;;;;;;4.33;3.60;;;18.10;99.90;;;;;;5013716;28;20445;-72
2022/10/26 08:48:51;;;;;;;4.00;3.60;;;18.00;99.90;;;;;;5019799;28;20401;-71
2022/10/26 08:51:23;;;;;;;3.30;3.10;;;18.00;99.90;;;;;;5032413;28;20463;-72
2022/10/26 08:53:58;;;;;;;4.27;3.90;;;18.00;99.90;;;;;;5034007;28;20796;-72
2022/10/26 08:56:34;;;;;;;3.10;2.80;;;18.10;99.90;;;;;;5033856;28;20488;-72
2022/10/26 08:59:34;;;;;;;3.87;3.37;;;18.20;99.90;;;;;;5006817;28;20997;-72
2022/10/26 09:02:01;;;;;;;4.60;4.10;;;18.40;99.90;;;;;;5010892;28;20463;-72
2022/10/26 09:04:28;;;;;;;3.67;3.20;;;18.60;99.90;;;;;;4994330;28;20442;-72
2022/10/26 09:07:41;;;;;;;4.47;4.07;;;18.80;99.90;;;;;;5002201;28;20426;-72
2022/10/26 09:10:13;;;;;;;4.70;4.40;;;18.90;99.90;;;;;;4966256;28;20542;-72
2022/10/26 09:12:52;;;;;;;3.50;3.30;;;19.00;99.90;;;;;;5004423;28;20418;-72
2022/10/26 09:15:35;;;;;;;3.67;3.30;;;19.10;99.90;;;;;;5003214;28;20418;-72
2022/10/26 09:18:29;;;;;;;3.60;3.30;;;19.50;99.90;;;;;;5001637;28;20418;-72
2022/10/26 09:21:33;;;;;;;3.70;3.50;;;19.90;99.90;;;;;;4982058;28;20427;-72
2022/10/26 09:24:06;;;;;;;3.70;3.50;;;20.10;99.90;;;;;;5000613;28;20415;-72
2022/10/26 09:26:53;;;;;;;6.10;5.60;;;20.50;99.90;;;;;;5001739;28;20908;-71
2022/10/26 09:29:25;;;;;;;4.30;3.60;;;21.10;98.20;;;;;;5002429;28;20469;-72
2022/10/26 09:31:51;;;;;;;4.90;4.60;;;21.50;95.90;;;;;;4984678;28;20471;-71
2022/10/26 09:34:30;;;;;;;6.13;4.70;;;21.80;96.20;;;;;;5000427;28;20672;-72
2022/10/26 09:36:55;;;;;;;5.43;5.03;;;22.00;95.40;;;;;;4999994;28;20426;-72
2022/10/26 09:39:37;;;;;;;4.53;4.23;;;22.20;95.70;;;;;;5002977;28;20411;-72
2022/10/26 09:42:17;;;;;;;4.50;4.20;;;22.30;94.80;;;;;;5000768;28;20651;-72
2022/10/26 09:45:03;;;;;;;5.03;4.50;;;22.30;94.50;;;;;;5002278;28;20401;-72
2022/10/26 09:47:36;;;;;;;4.37;3.97;;;22.10;94.40;;;;;;5000583;28;20435;-73
2022/10/26 09:50:15;;;;;;;4.20;3.80;;;22.00;95.60;;;;;;5005213;28;20411;-72
2022/10/26 09:52:41;;;;;;;4.20;3.90;;;21.80;97.70;;;;;;5002009;28;20482;-72
2022/10/26 09:55:11;;;;;;;4.37;4.07;;;21.60;97.00;;;;;;5001325;28;20438;-71
2022/10/26 09:57:44;;;;;;;4.67;4.20;;;21.40;96.60;;;;;;5004015;28;20230;-72
2022/10/26 10:00:14;;;;;;;4.50;4.10;;;21.30;97.70;;;;;;5002762;28;20460;-71
2022/10/26 10:02:48;;;;;;;4.30;3.77;;;21.10;98.80;;;;;;5002001;28;20465;-71
2022/10/26 10:05:34;;;;;;;4.50;3.90;;;21.00;98.80;;;;;;5003384;28;20414;-71
2022/10/26 10:08:18;;;;;;;5.23;4.73;;;20.90;98.90;;;;;;5001992;28;20462;-72
2022/10/26 10:11:08;;;;;;;4.43;4.07;;;20.70;99.00;;;;;;5001010;28;20402;-71
2022/10/26 10:13:52;;;;;;;4.73;4.33;;;20.60;99.90;;;;;;5003662;28;20506;-71
2022/10/26 10:16:18;;;;;;;3.30;3.00;;;20.50;99.60;;;;;;5003177;28;20441;-72
2022/10/26 10:18:58;;;;;;;6.30;5.70;;;20.30;99.90;;;;;;5003310;28;20422;-71
2022/10/26 10:22:07;;;;;;;5.30;4.93;;;20.30;99.90;;;;;;5000590;28;20254;-72
2022/10/26 10:24:35;;;;;;;2.83;2.60;;;20.30;99.90;;;;;;4943716;29;20880;-71
2022/10/26 10:27:04;;;;;;;6.87;6.43;;;20.30;99.90;;;;;;5003680;28;20418;-72
2022/10/26 10:29:40;;;;;;;3.10;2.80;;;20.30;99.90;;;;;;5021158;28;20413;-71
2022/10/26 10:32:13;;;;;;;5.63;3.37;;;20.20;99.90;;;;;;5002647;28;20862;-72
2022/10/26 10:34:39;;;;;;;5.67;5.27;;;20.20;99.90;;;;;;4998706;28;20419;-71
2022/10/26 10:37:04;;;;;;;3.03;2.83;;;20.40;99.90;;;;;;5007480;28;20910;-72
2022/10/26 10:39:33;;;;;;;3.57;3.27;;;21.00;99.90;;;;;;5021890;28;20214;-71
2022/10/26 10:42:00;;;;;;;5.97;5.57;;;21.50;98.80;;;;;;5032452;28;20214;-71
2022/10/26 10:44:28;;;;;;;5.53;5.13;;;22.00;97.90;;;;;;5021489;28;20442;-71
2022/10/26 10:47:03;;;;;;;4.67;4.10;;;22.50;96.80;;;;;;5009436;28;20413;-71
2022/10/26 10:49:30;;;;;;;6.63;3.80;;;22.90;95.00;;;;;;5023625;28;20420;-70
2022/10/26 10:51:56;;;;;;;6.50;6.20;;;23.20;95.10;;;;;;5026791;28;20425;-71
2022/10/26 10:54:38;;;;;;;5.23;4.83;;;23.60;94.70;;;;;;5010162;28;20505;-71
2022/10/26 10:57:28;;;;;;;5.20;4.90;;;23.90;93.60;;;;;;4998470;28;20425;-70
2022/10/26 11:00:04;;;;;;;5.93;5.53;;;24.40;92.00;;;;;;5024975;28;20412;-69
2022/10/26 11:03:01;;;;;;;7.77;7.27;;;24.80;90.80;;;;;;5023380;28;20461;-69
2022/10/26 11:05:52;;;;;;;5.50;4.50;;;25.10;90.90;;;;;;5009367;28;20426;-69
2022/10/26 11:08:47;;;;;;;7.83;7.20;;;25.30;89.60;;;;;;5010606;28;20440;-67
2022/10/26 11:11:24;;;;;;;5.13;3.77;;;25.50;88.40;;;;;;5026662;28;20417;-69
2022/10/26 11:14:09;;;;;;;5.73;5.33;;;25.60;88.20;;;;;;5030783;28;20904;-69
2022/10/26 11:16:41;;;;;;;3.90;3.70;;;25.80;85.90;;;;;;5034519;28;20404;-69
2022/10/26 11:19:18;;;;;;;6.87;6.37;;;25.90;86.60;;;;;;5028156;28;20409;-69
2022/10/26 11:21:49;;;;;;;7.27;6.57;;;25.90;86.60;;;;;;5034707;28;20440;-69
2022/10/26 11:24:34;;;;;;;4.87;4.23;;;26.00;86.40;;;;;;5034268;28;20408;-69
2022/10/26 11:27:11;;;;;;;8.33;4.73;;;26.20;85.20;;;;;;5034326;28;20900;-69
2022/10/26 11:29:53;;;;;;;7.30;6.63;;;26.30;84.80;;;;;;5028858;28;20477;-69
2022/10/26 11:32:42;;;;;;;5.20;4.90;;;26.30;83.00;;;;;;5033436;28;20464;-72
2022/10/26 11:35:12;;;;;;;4.87;4.53;;;26.20;84.20;;;;;;5006059;28;20430;-73
2022/10/26 11:37:51;;;;;;;5.53;4.83;;;26.10;84.00;;;;;;5006162;28;20465;-73
2022/10/26 11:40:23;;;;;;;5.17;4.80;;;26.00;85.20;;;;;;5012875;28;20403;-72
2022/10/26 11:43:13;;;;;;;5.77;4.63;;;26.00;85.20;;;;;;4994669;28;20489;-72
2022/10/26 11:46:01;;;;;;;4.90;4.40;;;25.90;85.40;;;;;;4992760;28;20427;-72
2022/10/26 11:48:42;;;;;;;7.83;4.50;;;25.80;86.10;;;;;;4970955;28;20920;-72
2022/10/26 11:51:33;;;;;;;4.10;3.67;;;25.60;86.10;;;;;;5029797;28;20403;-72
2022/10/26 11:54:07;;;;;;;7.43;6.73;;;25.40;86.30;;;;;;4993961;28;20458;-72
2022/10/26 11:56:38;;;;;;;7.70;6.93;;;25.20;87.50;;;;;;5000194;28;20430;-72
2022/10/26 11:59:08;;;;;;;4.40;4.10;;;25.00;87.40;;;;;;5022656;28;20444;-72
2022/10/26 12:01:33;;;;;;;5.60;5.20;;;24.70;88.20;;;;;;5033700;28;20464;-71
2022/10/26 12:04:01;;;;;;;3.80;3.50;;;24.50;89.70;;;;;;5019520;28;20422;-71
2022/10/26 12:06:30;;;;;;;3.03;2.70;;;24.30;90.00;;;;;;5014203;28;20521;-71
2022/10/26 12:09:06;;;;;;;7.37;4.23;;;24.10;90.40;;;;;;5019786;28;20441;-71
2022/10/26 12:11:42;;;;;;;3.10;2.90;;;23.90;90.70;;;;;;5033591;28;20421;-71
2022/10/26 12:14:24;;;;;;;5.30;3.17;;;23.70;91.60;;;;;;5033116;28;20399;-71
2022/10/26 12:17:04;;;;;;;6.70;6.20;;;23.60;92.00;;;;;;5049246;28;20394;-71
2022/10/26 12:19:48;;;;;;;5.03;4.50;;;23.40;92.70;;;;;;5027670;28;20435;-71
2022/10/26 12:22:16;;;;;;;3.97;3.50;;;23.30;93.50;;;;;;5033033;28;20461;-71
2022/10/26 12:24:44;;;;;;;4.00;3.60;;;23.20;94.00;;;;;;5032104;28;20413;-71
2022/10/26 12:27:39;;;;;;;5.33;4.93;;;23.20;94.60;;;;;;5047974;28;20410;-71
2022/10/26 12:30:11;;;;;;;4.37;3.67;;;22.90;94.70;;;;;;5029882;28;20471;-71
2022/10/26 12:32:36;;;;;;;5.73;2.80;;;22.80;95.00;;;;;;5033253;28;20542;-71
2022/10/26 12:35:31;;;;;;;4.43;3.87;;;22.70;95.90;;;;;;5016643;28;20949;-74
2022/10/26 12:37:58;;;;;;;5.37;5.03;;;22.70;96.00;;;;;;5013743;28;20272;-72
2022/10/26 12:40:32;;;;;;;2.87;2.67;;;22.60;96.60;;;;;;5032216;28;20413;-71
2022/10/26 12:43:17;;;;;;;4.87;4.57;;;22.40;96.60;;;;;;5033137;28;20481;-71
2022/10/26 12:46:12;;;;;;;2.87;2.70;;;22.30;96.90;;;;;;5032823;28;20409;-71
2022/10/26 12:48:42;;;;;;;5.57;5.27;;;22.20;97.70;;;;;;5008963;28;20425;-72
2022/10/26 12:51:26;;;;;;;4.83;4.63;;;22.20;98.10;;;;;;5032516;28;20390;-71
2022/10/26 12:54:00;;;;;;;2.90;2.63;;;22.20;98.50;;;;;;5032184;28;20429;-71
2022/10/26 12:56:50;;;;;;;6.00;5.60;;;22.10;98.10;;;;;;5031523;28;21057;-71
2022/10/26 12:59:27;;;;;;;4.30;3.90;;;22.10;98.30;;;;;;5018742;28;20496;-71
2022/10/26 13:02:30;;;;;;;4.30;4.07;;;22.00;98.60;;;;;;5014779;28;20591;-71
2022/10/26 13:05:14;;;;;;;5.10;4.80;;;22.00;98.70;;;;;;5007382;28;20429;-72
2022/10/26 13:07:40;;;;;;;3.93;3.70;;;21.90;99.20;;;;;;5000882;28;20813;-73
2022/10/26 13:10:27;;;;;;;4.40;4.00;;;21.80;99.30;;;;;;5004978;28;20411;-72